Time;durP1;ratioP1;P1;durP2;ratioP2;P2;SDS_P1;SDS_P2;PMS_P1;PMS_P2;Temp;Humidity;BMP_temperature;BMP_pressure;BME280_temperature;BME280_humidity;BME280_pressure;Samples;Min_cycle;Max_cycle;Signal;HPM_P1;HPM_P2
2023/03/29 00:01:17;;;;;;;19.67;8.02;;;8.50;99.90;;;;;;4970789;28;20042;-89
2023/03/29 00:03:44;;;;;;;22.60;8.50;;;8.50;99.90;;;;;;4967517;28;20023;-89
2023/03/29 00:06:21;;;;;;;16.55;7.53;;;8.50;99.90;;;;;;4951018;28;20039;-89
2023/03/29 00:08:52;;;;;;;18.98;8.23;;;8.50;99.90;;;;;;4965805;28;20019;-89
2023/03/29 00:11:21;;;;;;;17.50;8.20;;;8.50;99.90;;;;;;4972797;28;20078;-89
2023/03/29 00:13:49;;;;;;;16.52;7.97;;;8.50;99.90;;;;;;4975904;28;20027;-90
2023/03/29 00:16:14;;;;;;;19.83;8.00;;;8.50;99.90;;;;;;4972393;28;20163;-89
2023/03/29 00:18:40;;;;;;;28.10;9.23;;;8.50;99.90;;;;;;4958193;28;20027;-90
2023/03/29 00:21:06;;;;;;;16.98;8.85;;;8.50;99.90;;;;;;4973898;28;20045;-89
2023/03/29 00:23:32;;;;;;;20.45;8.80;;;8.50;99.90;;;;;;4975391;28;20392;-88
2023/03/29 00:25:57;;;;;;;27.17;9.40;;;8.50;99.90;;;;;;4959277;28;20436;-89
2023/03/29 00:28:23;;;;;;;19.70;7.53;;;8.50;99.90;;;;;;4958016;28;20019;-89
2023/03/29 00:30:49;;;;;;;16.70;8.52;;;8.50;99.90;;;;;;4973156;28;21545;-90
2023/03/29 00:33:17;;;;;;;22.08;8.43;;;8.50;99.90;;;;;;4970260;28;20074;-89
2023/03/29 00:35:43;;;;;;;23.15;8.85;;;8.50;99.90;;;;;;4958052;28;20062;-89
2023/03/29 00:38:09;;;;;;;21.83;9.27;;;8.60;99.90;;;;;;4973776;28;20027;-89
2023/03/29 00:40:45;;;;;;;25.77;8.80;;;8.60;99.90;;;;;;4959383;28;20034;-90
2023/03/29 00:43:12;;;;;;;23.63;8.90;;;8.60;99.90;;;;;;4975205;28;20046;-89
2023/03/29 00:45:40;;;;;;;26.30;10.00;;;8.60;99.90;;;;;;4975014;28;20467;-90
2023/03/29 00:48:09;;;;;;;15.75;7.82;;;8.60;99.90;;;;;;4941924;28;20035;-91
2023/03/29 00:50:40;;;;;;;18.67;7.60;;;8.60;99.90;;;;;;4958021;28;20490;-89
2023/03/29 00:53:11;;;;;;;;;;;8.60;99.90;;;;;;4958092;28;20030;-89
2023/03/29 00:56:05;;;;;;;26.13;7.60;;;8.60;99.90;;;;;;4957623;28;19918;-89
2023/03/29 00:58:48;;;;;;;25.40;6.53;;;8.60;99.90;;;;;;4973368;28;20045;-89
2023/03/29 01:01:19;;;;;;;22.08;7.82;;;8.60;99.90;;;;;;4958241;28;20023;-89
2023/03/29 01:03:55;;;;;;;22.52;7.72;;;8.60;99.90;;;;;;4957393;28;20026;-89
2023/03/29 01:06:25;;;;;;;26.63;7.97;;;8.50;99.90;;;;;;4973143;28;20487;-89
2023/03/29 01:08:56;;;;;;;28.52;9.88;;;8.50;99.90;;;;;;4975022;28;20142;-89
2023/03/29 01:11:44;;;;;;;20.33;7.15;;;8.50;99.90;;;;;;4941949;28;20448;-89
2023/03/29 01:14:17;;;;;;;23.88;8.90;;;8.40;99.90;;;;;;4966321;28;20042;-89
2023/03/29 01:16:44;;;;;;;22.23;8.25;;;8.40;99.90;;;;;;4975052;28;20059;-89
2023/03/29 01:19:14;;;;;;;28.83;8.45;;;8.40;99.90;;;;;;4962170;28;20038;-88
2023/03/29 01:21:51;;;;;;;23.30;7.73;;;8.30;99.90;;;;;;4973712;28;20031;-90
2023/03/29 01:24:40;;;;;;;16.70;7.28;;;8.30;99.90;;;;;;4970710;28;20027;-89
2023/03/29 01:27:22;;;;;;;21.10;7.55;;;8.30;99.90;;;;;;4972082;28;20393;-88
2023/03/29 01:29:56;;;;;;;19.33;6.95;;;8.20;99.90;;;;;;4948244;28;20023;-89
2023/03/29 01:32:46;;;;;;;22.08;6.78;;;8.20;99.90;;;;;;4955292;28;20015;-87
2023/03/29 01:35:21;;;;;;;17.60;6.90;;;8.20;99.90;;;;;;4964961;28;20042;-88
2023/03/29 01:37:55;;;;;;;17.70;6.43;;;8.20;99.90;;;;;;4956579;28;20384;-90
2023/03/29 01:40:21;;;;;;;24.90;6.47;;;8.20;99.90;;;;;;4970486;28;20465;-90
2023/03/29 01:42:53;;;;;;;18.23;6.50;;;8.10;99.90;;;;;;4956827;28;20023;-90
2023/03/29 01:45:34;;;;;;;14.13;6.43;;;8.10;99.90;;;;;;4948107;28;20054;-89
2023/03/29 01:48:06;;;;;;;16.52;7.28;;;8.10;99.90;;;;;;4970761;28;20118;-90
2023/03/29 01:50:35;;;;;;;17.50;6.82;;;8.10;99.90;;;;;;4957100;28;20519;-91
2023/03/29 01:53:30;;;;;;;19.85;6.57;;;8.10;99.90;;;;;;4972795;28;20077;-90
2023/03/29 01:56:03;;;;;;;25.30;7.40;;;8.10;99.90;;;;;;4952169;28;20039;-91
2023/03/29 01:58:35;;;;;;;20.60;8.57;;;8.00;99.90;;;;;;4940298;28;20051;-90
2023/03/29 02:01:04;;;;;;;22.23;6.85;;;8.00;99.90;;;;;;4956614;28;20378;-89
2023/03/29 02:03:32;;;;;;;15.98;6.32;;;8.00;99.90;;;;;;4956622;28;20023;-89
2023/03/29 02:05:59;;;;;;;26.92;8.00;;;8.00;99.90;;;;;;4954125;28;20082;-89
2023/03/29 02:08:26;;;;;;;24.65;7.75;;;7.90;99.90;;;;;;4956327;28;20058;-90
2023/03/29 02:10:52;;;;;;;18.83;6.82;;;7.90;99.90;;;;;;4956320;28;20114;-88
2023/03/29 02:13:18;;;;;;;15.93;6.38;;;7.90;99.90;;;;;;4973190;28;20050;-89
2023/03/29 02:15:47;;;;;;;25.23;7.10;;;7.90;99.90;;;;;;4955865;28;20034;-90
2023/03/29 02:18:18;;;;;;;19.80;6.90;;;7.90;99.90;;;;;;4956231;28;20022;-90
2023/03/29 02:20:49;;;;;;;16.30;6.90;;;7.90;99.90;;;;;;4972258;28;20031;-88
2023/03/29 02:23:35;;;;;;;16.83;5.95;;;7.80;99.90;;;;;;4973416;28;20015;-90
2023/03/29 02:26:02;;;;;;;19.20;6.57;;;7.90;99.90;;;;;;4967920;28;20407;-89
2023/03/29 02:28:30;;;;;;;18.48;6.68;;;7.90;99.90;;;;;;4956333;28;20030;-91
2023/03/29 02:31:14;;;;;;;21.05;6.93;;;7.80;99.90;;;;;;4953684;28;20062;-89
2023/03/29 02:34:10;;;;;;;17.95;6.82;;;7.80;99.90;;;;;;4970148;28;20650;-89
2023/03/29 02:36:53;;;;;;;18.35;6.22;;;7.80;99.90;;;;;;4956420;28;20059;-91
2023/03/29 02:39:24;;;;;;;17.60;7.47;;;7.80;99.90;;;;;;4971441;28;20042;-89
2023/03/29 02:41:51;;;;;;;22.25;6.63;;;7.80;99.90;;;;;;4973159;28;20427;-89
2023/03/29 02:44:21;;;;;;;16.15;6.40;;;7.80;99.90;;;;;;4956853;28;20087;-88
2023/03/29 02:46:49;;;;;;;19.73;7.82;;;7.80;99.90;;;;;;4973471;28;20416;-88
2023/03/29 02:49:15;;;;;;;14.15;6.60;;;7.90;99.90;;;;;;4980244;28;20031;-89
2023/03/29 02:51:42;;;;;;;21.48;7.60;;;7.80;99.90;;;;;;4951857;28;20034;-89
2023/03/29 02:54:12;;;;;;;17.27;7.40;;;7.80;99.90;;;;;;4965759;28;20026;-89
2023/03/29 02:56:46;;;;;;;20.40;7.63;;;7.80;99.90;;;;;;4951254;28;20089;-88
2023/03/29 02:59:14;;;;;;;22.65;7.47;;;7.80;99.90;;;;;;4949367;28;20024;-89
2023/03/29 03:01:41;;;;;;;13.35;6.82;;;7.80;99.90;;;;;;4966074;28;20059;-89
2023/03/29 03:04:10;;;;;;;15.10;7.70;;;7.80;99.90;;;;;;4951303;28;20077;-89
2023/03/29 03:06:36;;;;;;;17.48;7.30;;;7.80;99.90;;;;;;4973186;28;20043;-89
2023/03/29 03:09:04;;;;;;;19.35;8.13;;;7.80;99.90;;;;;;4976796;28;20038;-89
2023/03/29 03:11:31;;;;;;;26.60;7.95;;;7.80;99.90;;;;;;4959498;28;20109;-90
2023/03/29 03:13:57;;;;;;;20.73;7.53;;;7.90;99.90;;;;;;4974328;28;20046;-91
2023/03/29 03:16:22;;;;;;;18.90;8.95;;;7.90;99.90;;;;;;4976744;28;20022;-89
2023/03/29 03:18:53;;;;;;;22.90;7.40;;;7.80;99.90;;;;;;4959402;28;20034;-89
2023/03/29 03:21:21;;;;;;;14.98;7.10;;;7.80;99.90;;;;;;4974671;28;20023;-90
2023/03/29 03:23:48;;;;;;;14.60;7.60;;;7.90;99.90;;;;;;4975630;28;20059;-90
2023/03/29 03:26:17;;;;;;;21.23;7.38;;;7.90;99.90;;;;;;4975581;28;20019;-90
2023/03/29 03:28:47;;;;;;;20.73;7.07;;;7.90;99.90;;;;;;4959407;28;20101;-90
2023/03/29 03:31:13;;;;;;;15.13;7.05;;;7.90;99.90;;;;;;4959643;28;20062;-89
2023/03/29 03:33:42;;;;;;;14.57;7.35;;;7.90;99.90;;;;;;4958895;28;20048;-90
2023/03/29 03:36:10;;;;;;;11.80;6.47;;;7.90;99.90;;;;;;4959278;28;20039;-89
2023/03/29 03:38:37;;;;;;;10.27;4.95;;;7.90;99.90;;;;;;4958897;28;20483;-90
2023/03/29 03:41:08;;;;;;;13.32;6.22;;;7.90;99.90;;;;;;4958927;28;20039;-90
2023/03/29 03:43:34;;;;;;;13.95;6.97;;;7.90;99.90;;;;;;4958663;28;20034;-90
2023/03/29 03:46:00;;;;;;;14.20;5.55;;;8.00;99.90;;;;;;4975959;28;20039;-91
2023/03/29 03:48:26;;;;;;;13.93;5.88;;;8.00;99.90;;;;;;4976067;28;20030;-89
2023/03/29 03:50:54;;;;;;;11.98;4.57;;;8.10;99.90;;;;;;4959205;28;20415;-90
2023/03/29 03:53:22;;;;;;;12.18;4.35;;;8.10;99.90;;;;;;4958467;28;20022;-90
2023/03/29 03:55:54;;;;;;;10.07;4.90;;;8.10;99.90;;;;;;4974500;28;20043;-89
2023/03/29 03:58:21;;;;;;;17.17;5.43;;;8.10;99.90;;;;;;4957101;28;20114;-90
2023/03/29 04:00:48;;;;;;;11.00;5.07;;;8.10;99.90;;;;;;4976294;28;20027;-89
2023/03/29 04:03:15;;;;;;;11.55;5.20;;;8.10;99.90;;;;;;4958587;28;20026;-89
2023/03/29 04:05:43;;;;;;;15.85;5.60;;;8.10;99.90;;;;;;4958333;28;20023;-89
2023/03/29 04:08:11;;;;;;;10.93;4.47;;;8.10;99.90;;;;;;4958513;28;20031;-90
2023/03/29 04:10:38;;;;;;;13.88;5.55;;;8.20;99.90;;;;;;4971912;28;20031;-89
2023/03/29 04:13:04;;;;;;;13.32;5.70;;;8.20;99.90;;;;;;4955236;29;20031;-89
2023/03/29 04:15:32;;;;;;;11.00;5.53;;;8.30;99.90;;;;;;4971120;28;20059;-90
2023/03/29 04:17:59;;;;;;;15.10;5.55;;;8.30;99.90;;;;;;4974488;28;20083;-89
2023/03/29 04:20:26;;;;;;;12.23;5.45;;;8.30;99.90;;;;;;4958142;28;20384;-89
2023/03/29 04:22:52;;;;;;;12.55;5.40;;;8.30;99.90;;;;;;4957996;28;20187;-89
2023/03/29 04:25:18;;;;;;;12.10;5.25;;;8.30;99.90;;;;;;4958122;28;20054;-89
2023/03/29 04:27:46;;;;;;;14.57;5.65;;;8.30;99.90;;;;;;4958609;28;20518;-90
2023/03/29 04:30:12;;;;;;;9.55;5.45;;;8.30;99.90;;;;;;4957849;28;20046;-90
2023/03/29 04:32:39;;;;;;;11.68;4.95;;;8.30;99.90;;;;;;4957804;28;20026;-91
2023/03/29 04:35:05;;;;;;;11.25;5.05;;;8.40;99.90;;;;;;4958200;28;20046;-93
2023/03/29 04:37:32;;;;;;;12.32;5.75;;;8.40;99.90;;;;;;4974750;28;20038;-89
2023/03/29 04:40:03;;;;;;;10.30;5.03;;;8.40;99.90;;;;;;4974574;28;20119;-89
2023/03/29 04:42:31;;;;;;;12.05;5.40;;;8.40;99.90;;;;;;4973932;28;20030;-90
2023/03/29 04:44:57;;;;;;;10.35;5.30;;;8.50;99.90;;;;;;4955454;28;20484;-89
2023/03/29 04:47:23;;;;;;;9.45;4.85;;;8.40;99.90;;;;;;4958199;28;20461;-90
2023/03/29 04:49:49;;;;;;;12.10;5.20;;;8.50;99.90;;;;;;4957891;28;20034;-89
2023/03/29 04:52:15;;;;;;;15.80;5.32;;;8.50;99.90;;;;;;4957174;28;20416;-89
2023/03/29 04:54:41;;;;;;;14.73;5.57;;;8.50;99.90;;;;;;4957582;28;20037;-88
2023/03/29 04:57:07;;;;;;;12.45;5.15;;;8.50;99.90;;;;;;4957923;28;20027;-90
2023/03/29 04:59:33;;;;;;;10.85;5.22;;;8.50;99.90;;;;;;4941257;28;20035;-89
2023/03/29 05:02:01;;;;;;;10.10;5.55;;;8.50;99.90;;;;;;4957554;28;20134;-89
2023/03/29 05:04:27;;;;;;;15.73;5.63;;;8.40;99.90;;;;;;4974677;28;20030;-89
2023/03/29 05:06:54;;;;;;;9.32;4.57;;;8.40;99.90;;;;;;4957169;28;20026;-89
2023/03/29 05:09:21;;;;;;;12.85;4.93;;;8.40;99.90;;;;;;4960426;28;20025;-90
2023/03/29 05:11:47;;;;;;;14.82;5.63;;;8.40;99.90;;;;;;4956346;28;20019;-90
2023/03/29 05:14:13;;;;;;;12.10;6.07;;;8.50;99.90;;;;;;4957310;28;20467;-89
2023/03/29 05:16:39;;;;;;;13.65;5.45;;;8.40;99.90;;;;;;4957292;28;20066;-91
2023/03/29 05:19:05;;;;;;;10.70;4.53;;;8.40;99.90;;;;;;4957267;28;20039;-89
2023/03/29 05:21:32;;;;;;;14.95;6.43;;;8.50;99.90;;;;;;4957275;28;20034;-89
2023/03/29 05:23:57;;;;;;;13.27;6.63;;;8.50;99.90;;;;;;4957018;28;20070;-89
2023/03/29 05:26:24;;;;;;;13.52;5.30;;;8.50;99.90;;;;;;4957512;28;20063;-90
2023/03/29 05:28:50;;;;;;;16.70;6.65;;;8.50;99.90;;;;;;4956935;28;20027;-88
2023/03/29 05:31:16;;;;;;;12.25;6.53;;;8.50;99.90;;;;;;4957442;28;20030;-88
2023/03/29 05:33:42;;;;;;;16.20;6.88;;;8.50;99.90;;;;;;4957287;28;20042;-90
2023/03/29 05:36:12;;;;;;;15.07;6.30;;;8.50;99.90;;;;;;4957050;28;20488;-88
2023/03/29 05:38:43;;;;;;;19.45;7.70;;;8.50;99.90;;;;;;4957373;28;20043;-89
2023/03/29 05:41:09;;;;;;;16.13;7.18;;;8.50;99.90;;;;;;4957434;28;20043;-89
2023/03/29 05:43:35;;;;;;;15.57;6.57;;;8.50;99.90;;;;;;4957480;28;20023;-89
2023/03/29 05:46:00;;;;;;;15.35;7.15;;;8.50;99.90;;;;;;4959039;28;20026;-88
2023/03/29 05:48:27;;;;;;;14.02;6.63;;;8.50;99.90;;;;;;4960713;28;20023;-89
2023/03/29 05:50:54;;;;;;;18.95;7.28;;;8.50;99.90;;;;;;4963620;28;20026;-88
2023/03/29 05:53:23;;;;;;;12.35;5.82;;;8.50;99.90;;;;;;4978457;28;20022;-89
2023/03/29 05:55:50;;;;;;;13.55;7.13;;;8.50;99.90;;;;;;4959534;28;20121;-88
2023/03/29 05:58:19;;;;;;;21.33;8.82;;;8.50;99.90;;;;;;4948918;29;20030;-89
2023/03/29 06:00:45;;;;;;;19.65;8.32;;;8.50;99.90;;;;;;4949042;28;20130;-89
2023/03/29 06:03:19;;;;;;;19.40;9.52;;;8.50;99.90;;;;;;4947029;28;20027;-88
2023/03/29 06:05:49;;;;;;;19.63;8.70;;;8.60;99.90;;;;;;4972811;28;20117;-88
2023/03/29 06:08:15;;;;;;;19.23;8.47;;;8.60;99.90;;;;;;4957400;28;20027;-88
2023/03/29 06:10:41;;;;;;;19.75;8.32;;;8.60;99.90;;;;;;4973787;28;20093;-90
2023/03/29 06:13:07;;;;;;;21.35;8.85;;;8.60;99.90;;;;;;4973852;28;20023;-89
2023/03/29 06:15:34;;;;;;;17.55;8.40;;;8.60;99.90;;;;;;4969712;28;20083;-88
2023/03/29 06:18:03;;;;;;;19.88;8.32;;;8.70;99.90;;;;;;4953800;28;20031;-90
2023/03/29 06:20:29;;;;;;;17.33;8.50;;;8.70;99.90;;;;;;4967821;28;20026;-87
2023/03/29 06:22:55;;;;;;;16.58;8.57;;;8.70;99.90;;;;;;4958374;28;20037;-88
2023/03/29 06:25:21;;;;;;;17.20;9.15;;;8.70;99.90;;;;;;4957753;28;20494;-89
2023/03/29 06:27:47;;;;;;;15.73;7.97;;;8.80;99.90;;;;;;4958991;28;20139;-88
2023/03/29 06:30:14;;;;;;;15.95;7.97;;;8.80;99.90;;;;;;4958164;28;20034;-88
2023/03/29 06:32:43;;;;;;;21.30;9.68;;;8.80;99.90;;;;;;4959644;28;20166;-90
2023/03/29 06:35:09;;;;;;;18.92;8.68;;;8.80;99.90;;;;;;4960091;28;20097;-89
2023/03/29 06:37:37;;;;;;;21.75;8.68;;;8.90;99.90;;;;;;4974131;28;20472;-89
2023/03/29 06:40:08;;;;;;;16.40;8.35;;;8.90;99.90;;;;;;4968897;28;20054;-88
2023/03/29 06:42:36;;;;;;;18.88;9.65;;;8.90;99.90;;;;;;4962213;28;20022;-89
2023/03/29 06:45:02;;;;;;;17.27;8.40;;;8.90;99.90;;;;;;4978742;28;20477;-88
2023/03/29 06:47:30;;;;;;;12.88;7.95;;;9.00;99.90;;;;;;4975453;28;20065;-90
2023/03/29 06:49:56;;;;;;;20.50;8.98;;;9.00;99.90;;;;;;4999874;28;20061;-89
2023/03/29 06:52:21;;;;;;;20.02;9.65;;;9.00;99.90;;;;;;4996671;28;20061;-89
2023/03/29 06:54:48;;;;;;;17.98;9.45;;;9.00;99.90;;;;;;4990733;28;20488;-89
2023/03/29 06:57:13;;;;;;;14.07;6.80;;;9.00;99.90;;;;;;4979099;28;20053;-88
2023/03/29 06:59:39;;;;;;;18.33;8.63;;;9.00;99.90;;;;;;4996446;28;20511;-89
2023/03/29 07:02:06;;;;;;;26.05;9.90;;;9.00;99.90;;;;;;4979963;28;20081;-90
2023/03/29 07:04:32;;;;;;;17.38;8.43;;;9.10;99.90;;;;;;4996122;28;20026;-88
2023/03/29 07:07:00;;;;;;;22.25;9.95;;;9.10;99.90;;;;;;4980488;28;20065;-90
2023/03/29 07:09:30;;;;;;;20.13;9.63;;;9.00;99.90;;;;;;4977589;28;20081;-89
2023/03/29 07:11:57;;;;;;;19.37;8.67;;;9.10;99.90;;;;;;4976387;28;20086;-88
2023/03/29 07:14:27;;;;;;;16.65;8.00;;;9.10;99.90;;;;;;4954868;28;20775;-88
2023/03/29 07:16:54;;;;;;;22.43;9.43;;;9.10;99.90;;;;;;4966129;28;20548;-89
2023/03/29 07:19:21;;;;;;;20.27;9.93;;;9.10;99.90;;;;;;4967013;28;20114;-89
2023/03/29 07:21:47;;;;;;;23.95;10.65;;;9.10;99.90;;;;;;4954264;28;20050;-88
2023/03/29 07:24:13;;;;;;;21.38;9.73;;;9.20;99.90;;;;;;4972745;28;20031;-89
2023/03/29 07:26:39;;;;;;;26.67;11.07;;;9.20;99.90;;;;;;4957132;28;20031;-89
2023/03/29 07:29:05;;;;;;;19.98;10.13;;;9.30;99.90;;;;;;4949023;28;20038;-88
2023/03/29 07:31:33;;;;;;;25.38;10.45;;;9.30;99.90;;;;;;4959916;28;20027;-89
2023/03/29 07:34:02;;;;;;;24.33;10.85;;;9.40;99.90;;;;;;4958609;28;20058;-88
2023/03/29 07:36:27;;;;;;;28.48;10.45;;;9.40;99.90;;;;;;4959656;28;20553;-88
2023/03/29 07:38:55;;;;;;;25.38;9.77;;;9.40;99.90;;;;;;4959592;28;20130;-88
2023/03/29 07:41:21;;;;;;;25.80;9.52;;;9.50;99.90;;;;;;4959302;28;20047;-90
2023/03/29 07:43:48;;;;;;;22.27;8.35;;;9.50;99.90;;;;;;4955843;28;20019;-88
2023/03/29 07:46:14;;;;;;;19.90;8.70;;;9.60;99.90;;;;;;4972559;28;20042;-88
2023/03/29 07:48:40;;;;;;;19.88;9.40;;;9.60;99.90;;;;;;4949504;28;20031;-90
2023/03/29 07:51:06;;;;;;;23.15;9.95;;;9.70;99.90;;;;;;4969356;28;20460;-90
2023/03/29 07:53:32;;;;;;;17.13;7.95;;;9.70;99.90;;;;;;4955618;28;20042;-89
2023/03/29 07:55:58;;;;;;;21.60;7.85;;;9.80;99.90;;;;;;4975292;28;20031;-88
2023/03/29 07:58:24;;;;;;;17.17;7.80;;;9.80;99.90;;;;;;4975307;28;20026;-87
2023/03/29 08:00:49;;;;;;;18.63;7.97;;;9.80;99.90;;;;;;4955343;28;20475;-88
2023/03/29 08:03:15;;;;;;;20.42;8.15;;;9.90;99.90;;;;;;4958406;28;20109;-89
2023/03/29 08:05:42;;;;;;;20.10;7.82;;;10.00;99.90;;;;;;4958554;28;20033;-89
2023/03/29 08:08:08;;;;;;;23.77;7.53;;;10.00;99.90;;;;;;4957929;28;20027;-89
2023/03/29 08:10:36;;;;;;;19.65;8.45;;;10.00;99.90;;;;;;4959094;28;20031;-89
2023/03/29 08:13:07;;;;;;;17.60;9.52;;;10.10;99.90;;;;;;4961978;28;20023;-88
2023/03/29 08:15:33;;;;;;;;;;;10.10;99.90;;;;;;4975865;28;20027;-89
2023/03/29 08:17:59;;;;;;;23.30;7.78;;;10.10;99.90;;;;;;4958799;28;19910;-88
2023/03/29 08:20:24;;;;;;;16.05;7.80;;;10.20;99.90;;;;;;4958460;28;20054;-90
2023/03/29 08:22:50;;;;;;;19.38;8.77;;;10.20;99.90;;;;;;4958469;28;20027;-90
2023/03/29 08:25:16;;;;;;;22.42;8.55;;;10.30;99.90;;;;;;4974946;28;20035;-88
2023/03/29 08:27:42;;;;;;;26.98;8.02;;;10.30;99.90;;;;;;4974883;28;20126;-88
2023/03/29 08:30:08;;;;;;;19.95;8.23;;;10.40;99.90;;;;;;4958620;28;20106;-89
2023/03/29 08:32:35;;;;;;;21.13;8.30;;;10.40;99.90;;;;;;4958475;28;20027;-89
2023/03/29 08:35:05;;;;;;;22.92;7.47;;;10.50;99.90;;;;;;4957827;28;20066;-89
2023/03/29 08:37:31;;;;;;;18.08;7.03;;;10.50;99.90;;;;;;4956155;28;20102;-89
2023/03/29 08:39:57;;;;;;;19.00;7.35;;;10.60;99.90;;;;;;4958144;28;20057;-89
2023/03/29 08:42:29;;;;;;;23.05;7.25;;;10.60;99.90;;;;;;4959272;28;20029;-89
2023/03/29 08:45:23;;;;;;;21.25;6.30;;;10.60;99.90;;;;;;4980870;28;20027;-89
2023/03/29 08:48:33;;;;;;;16.65;5.70;;;10.60;99.90;;;;;;4961430;28;20082;-89
2023/03/29 08:51:16;;;;;;;22.02;5.72;;;10.60;99.90;;;;;;4976150;28;20030;-88
2023/03/29 08:53:47;;;;;;;23.83;6.20;;;10.70;99.90;;;;;;4974874;28;20037;-89
2023/03/29 08:56:17;;;;;;;14.52;6.32;;;10.70;99.90;;;;;;4959199;28;20031;-88
2023/03/29 08:58:45;;;;;;;17.25;6.20;;;10.80;99.90;;;;;;4958545;28;20039;-89
2023/03/29 09:01:12;;;;;;;19.92;6.28;;;10.80;99.90;;;;;;4957482;28;20082;-89
2023/03/29 09:03:40;;;;;;;15.80;5.65;;;10.80;99.90;;;;;;4958030;28;20058;-89
2023/03/29 09:06:09;;;;;;;18.40;5.32;;;10.80;99.90;;;;;;4950665;28;20030;-89
2023/03/29 09:08:46;;;;;;;15.63;5.22;;;10.70;99.90;;;;;;4958273;28;20065;-89
2023/03/29 09:11:41;;;;;;;18.52;5.95;;;10.70;99.90;;;;;;4956084;28;20405;-88
2023/03/29 09:14:42;;;;;;;14.02;4.85;;;10.70;99.90;;;;;;4955101;28;20058;-89
2023/03/29 09:17:50;;;;;;;8.88;3.90;;;10.70;99.90;;;;;;4961529;28;20039;-88
2023/03/29 09:20:21;;;;;;;14.23;4.78;;;10.70;99.90;;;;;;4945600;28;20235;-88
2023/03/29 09:22:59;;;;;;;13.75;4.03;;;10.70;99.90;;;;;;4970740;28;20046;-88
2023/03/29 09:25:37;;;;;;;9.40;4.65;;;10.60;99.90;;;;;;4956451;28;20018;-88
2023/03/29 09:28:08;;;;;;;19.35;6.80;;;10.60;99.90;;;;;;4973768;28;20046;-89
2023/03/29 09:30:38;;;;;;;12.80;5.82;;;10.60;99.90;;;;;;4957318;28;20019;-89
2023/03/29 09:33:10;;;;;;;19.30;5.57;;;10.60;99.90;;;;;;4963364;28;20067;-90
2023/03/29 09:35:37;;;;;;;26.92;7.03;;;10.50;99.90;;;;;;4958497;28;20651;-89
2023/03/29 09:38:08;;;;;;;14.80;5.95;;;10.50;99.90;;;;;;4957176;28;20491;-89
2023/03/29 09:40:41;;;;;;;19.13;7.13;;;10.50;99.90;;;;;;4956523;28;20041;-88
2023/03/29 09:43:10;;;;;;;22.08;7.55;;;10.50;99.90;;;;;;4954683;29;20047;-89
2023/03/29 09:45:38;;;;;;;17.60;6.60;;;10.40;99.90;;;;;;4957702;28;20038;-88
2023/03/29 09:48:14;;;;;;;18.17;6.25;;;10.40;99.90;;;;;;4957519;28;20031;-88
2023/03/29 09:50:42;;;;;;;20.48;5.80;;;10.40;99.90;;;;;;4972470;28;20491;-88
2023/03/29 09:53:09;;;;;;;14.85;6.00;;;10.40;99.90;;;;;;4972304;28;20027;-88
2023/03/29 09:55:37;;;;;;;15.27;5.65;;;10.40;99.90;;;;;;4956386;28;20080;-88
2023/03/29 09:58:24;;;;;;;26.35;6.15;;;10.40;99.90;;;;;;4955387;28;20117;-90
2023/03/29 10:00:50;;;;;;;18.88;5.88;;;10.40;99.90;;;;;;4948417;29;20036;-88
2023/03/29 10:03:20;;;;;;;15.77;4.68;;;10.40;99.90;;;;;;4953810;29;20125;-88
2023/03/29 10:05:48;;;;;;;;;;;10.40;99.90;;;;;;4957667;28;20458;-89
2023/03/29 10:08:29;;;;;;;15.32;4.90;;;10.40;99.90;;;;;;4957712;28;19910;-94
2023/03/29 10:10:59;;;;;;;13.43;4.72;;;10.40;99.90;;;;;;4957825;28;20065;-93
2023/03/29 10:13:53;;;;;;;15.82;4.88;;;10.40;99.90;;;;;;4957992;28;20396;-93
2023/03/29 10:16:22;;;;;;;15.02;4.03;;;10.40;99.90;;;;;;4960817;28;20042;-89
2023/03/29 10:18:53;;;;;;;13.05;4.85;;;10.30;99.90;;;;;;4957527;28;20030;-92
2023/03/29 10:21:19;;;;;;;;;;;10.30;99.90;;;;;;4959059;28;20038;-92
2023/03/29 10:23:46;;;;;;;17.75;4.97;;;10.30;99.90;;;;;;4957963;28;19910;-90
2023/03/29 10:26:26;;;;;;;13.00;4.82;;;10.40;99.90;;;;;;4956845;28;20049;-90
2023/03/29 10:28:56;;;;;;;18.53;6.63;;;10.30;99.90;;;;;;4955696;28;20022;-89
2023/03/29 10:31:22;;;;;;;19.27;5.35;;;10.30;99.90;;;;;;4956482;28;20023;-90
2023/03/29 10:33:57;;;;;;;14.82;5.72;;;10.30;99.90;;;;;;4956258;28;20476;-91
2023/03/29 10:36:25;;;;;;;10.93;5.10;;;10.30;99.90;;;;;;4955236;28;20043;-91
2023/03/29 10:38:55;;;;;;;9.52;3.65;;;10.30;99.90;;;;;;4956041;28;20109;-91
2023/03/29 10:41:21;;;;;;;15.25;5.93;;;10.30;99.90;;;;;;4956559;28;20094;-91
2023/03/29 10:43:49;;;;;;;16.23;5.35;;;10.40;99.90;;;;;;4956823;28;20087;-91
2023/03/29 10:46:23;;;;;;;11.27;5.80;;;10.30;99.90;;;;;;4957220;28;20090;-91
2023/03/29 10:49:01;;;;;;;11.20;6.20;;;10.40;99.90;;;;;;4956964;28;20027;-91
2023/03/29 10:51:31;;;;;;;13.50;4.88;;;10.30;99.90;;;;;;4957445;28;20039;-92
2023/03/29 10:54:00;;;;;;;13.45;5.95;;;10.40;99.90;;;;;;4960467;28;20047;-92
2023/03/29 10:57:02;;;;;;;12.77;5.38;;;10.40;99.90;;;;;;4958373;28;20034;-91
2023/03/29 10:59:39;;;;;;;18.45;5.55;;;10.40;99.90;;;;;;4957497;28;20030;-92
2023/03/29 11:02:14;;;;;;;16.70;5.72;;;10.30;99.90;;;;;;4957029;28;20035;-91
2023/03/29 11:04:59;;;;;;;13.30;5.30;;;10.40;99.90;;;;;;4957124;28;20486;-91
2023/03/29 11:07:43;;;;;;;21.70;7.00;;;10.40;99.90;;;;;;4973439;28;20031;-90
2023/03/29 11:10:33;;;;;;;11.48;5.32;;;10.40;99.90;;;;;;4959896;28;20027;-90
2023/03/29 11:13:02;;;;;;;13.40;5.10;;;10.40;99.90;;;;;;4960262;28;20063;-92
2023/03/29 11:16:05;;;;;;;10.30;5.60;;;10.40;99.90;;;;;;4959724;28;20057;-90
2023/03/29 11:18:40;;;;;;;12.95;5.47;;;10.40;99.90;;;;;;4975216;28;20027;-90
2023/03/29 11:21:17;;;;;;;11.38;5.10;;;10.40;99.90;;;;;;4959504;28;20547;-88
2023/03/29 11:24:06;;;;;;;16.00;5.22;;;10.50;99.90;;;;;;4959745;28;20034;-90
2023/03/29 11:26:56;;;;;;;9.95;4.63;;;10.50;99.90;;;;;;4956549;29;20031;-89
2023/03/29 11:29:29;;;;;;;8.65;4.60;;;10.60;99.90;;;;;;4957272;29;20023;-91
2023/03/29 11:32:13;;;;;;;8.43;3.95;;;10.70;99.90;;;;;;4957498;29;20077;-89
2023/03/29 11:34:54;;;;;;;10.80;3.55;;;10.80;99.90;;;;;;4959033;29;20055;-89
2023/03/29 11:37:30;;;;;;;12.00;4.10;;;10.90;99.90;;;;;;4953351;29;20023;-89
2023/03/29 11:40:24;;;;;;;7.00;3.00;;;11.00;99.90;;;;;;4942762;29;20102;-89
2023/03/29 11:42:57;;;;;;;6.05;2.75;;;11.20;99.90;;;;;;4967241;28;20023;-91
2023/03/29 11:45:33;;;;;;;5.88;2.70;;;11.20;99.90;;;;;;4961197;28;20483;-94
2023/03/29 11:48:01;;;;;;;5.45;2.47;;;11.30;99.90;;;;;;4963709;28;20065;-95
2023/03/29 11:50:56;;;;;;;3.92;2.55;;;11.30;99.90;;;;;;4962733;28;20049;-96
2023/03/29 11:53:30;;;;;;;5.55;2.63;;;11.40;99.90;;;;;;4964293;28;20050;-94
2023/03/29 11:56:04;;;;;;;4.07;2.10;;;11.50;99.90;;;;;;4964857;28;20069;-95
2023/03/29 11:58:36;;;;;;;3.65;1.75;;;11.50;99.90;;;;;;4963506;28;20035;-96
2023/03/29 12:01:18;;;;;;;4.35;1.80;;;11.50;99.90;;;;;;4963662;28;20027;-95
2023/03/29 12:03:57;;;;;;;1.88;1.20;;;11.60;99.90;;;;;;4948778;28;20487;-95
2023/03/29 12:06:42;;;;;;;5.30;1.70;;;11.60;99.90;;;;;;4964713;28;20042;-96
2023/03/29 12:09:25;;;;;;;1.80;1.20;;;11.60;99.90;;;;;;4963987;28;20047;-95
2023/03/29 12:12:20;;;;;;;1.65;1.30;;;11.60;99.90;;;;;;4964625;28;20011;-96
2023/03/29 12:14:59;;;;;;;2.97;1.15;;;11.70;99.90;;;;;;4981888;28;20041;-93
2023/03/29 12:17:42;;;;;;;1.95;0.90;;;11.70;99.90;;;;;;4991968;28;20040;-93
2023/03/29 12:20:27;;;;;;;1.88;1.00;;;11.80;99.90;;;;;;4987342;28;20015;-92
2023/03/29 12:22:53;;;;;;;1.00;0.90;;;11.80;99.90;;;;;;5001625;28;20022;-93
2023/03/29 12:26:04;;;;;;;1.35;0.90;;;11.80;99.90;;;;;;4998617;28;20061;-95
2023/03/29 12:28:35;;;;;;;0.82;0.63;;;11.80;99.90;;;;;;4997798;28;20026;-94
2023/03/29 12:31:31;;;;;;;1.60;0.70;;;11.80;99.90;;;;;;4979711;28;20030;-94
2023/03/29 12:34:19;;;;;;;0.52;0.52;;;11.80;99.90;;;;;;4996416;28;20059;-94
2023/03/29 12:37:00;;;;;;;1.55;0.57;;;11.80;99.90;;;;;;4985127;28;20033;-93
2023/03/29 12:39:27;;;;;;;0.52;0.40;;;11.80;99.90;;;;;;5007689;28;20069;-94
2023/03/29 12:42:30;;;;;;;0.40;0.40;;;11.70;99.90;;;;;;5008769;28;20011;-93
2023/03/29 12:45:00;;;;;;;0.38;0.30;;;11.70;99.90;;;;;;4980088;28;20049;-92
2023/03/29 12:47:32;;;;;;;0.45;0.30;;;11.70;99.90;;;;;;4993992;28;20669;-94
2023/03/29 12:50:02;;;;;;;0.57;0.30;;;11.70;99.90;;;;;;4958355;28;20041;-94
2023/03/29 12:52:40;;;;;;;0.30;0.30;;;11.60;99.90;;;;;;4960032;28;20085;-94
2023/03/29 12:55:31;;;;;;;0.32;0.32;;;11.60;99.90;;;;;;4970281;28;20041;-94
2023/03/29 12:58:07;;;;;;;0.65;0.65;;;11.60;99.90;;;;;;4976259;28;20073;-95
2023/03/29 13:00:35;;;;;;;0.63;0.60;;;11.60;99.90;;;;;;4947706;28;20027;-93
2023/03/29 13:03:36;;;;;;;0.77;0.77;;;11.60;99.90;;;;;;4966049;28;20023;-94
2023/03/29 13:06:10;;;;;;;2.22;1.10;;;11.60;99.90;;;;;;4938340;28;20069;-94
2023/03/29 13:08:52;;;;;;;1.30;1.20;;;11.60;99.90;;;;;;4983886;28;20035;-94